createdAt,value
2022-09-26T00:00:38.024Z,99165.69
2022-09-26T00:03:15.265Z,99161.44
2022-09-26T00:05:56.677Z,99152.75
2022-09-26T00:08:38.096Z,99151.06
2022-09-26T00:11:09.165Z,99146.25
2022-09-26T00:13:45.499Z,99137.78
2022-09-26T00:16:18.945Z,99139.56
2022-09-26T00:18:59.571Z,99137.78
2022-09-26T00:21:39.617Z,99128.59
2022-09-26T00:24:20.326Z,99129.09
2022-09-26T00:26:56.069Z,99118.56
2022-09-26T00:29:37.396Z,99110.50
2022-09-26T00:32:15.214Z,99119.06
2022-09-26T00:34:59.419Z,99119.81
2022-09-26T00:37:37.036Z,99124.63
2022-09-26T00:40:16.435Z,99127.34
2022-09-26T00:42:57.768Z,99120.81
2022-09-26T00:45:50.026Z,99113.41
2022-09-26T00:48:30.443Z,99113.16
2022-09-26T00:51:09.009Z,99110.69
2022-09-26T00:53:56.512Z,99099.34
2022-09-26T00:56:39.446Z,99100.25
2022-09-26T00:59:31.720Z,99104.28
2022-09-26T01:02:15.039Z,99095.97
2022-09-26T01:05:00.846Z,99095.09
2022-09-26T01:07:38.517Z,99091.50
2022-09-26T01:10:12.835Z,99100.25
2022-09-26T01:12:48.518Z,99096.84
2022-09-26T01:15:25.204Z,99083.44
2022-09-26T01:17:59.698Z,99087.78
2022-09-26T01:20:38.774Z,99078.03
2022-09-26T01:23:44.371Z,99083.94
2022-09-26T01:26:46.918Z,99077.22
2022-09-26T01:29:40.582Z,99060.47
2022-09-26T01:32:38.123Z,99068.34
2022-09-26T01:36:06.931Z,99060.16
2022-09-26T01:38:56.467Z,99054.47
2022-09-26T01:41:54.334Z,99051.91
2022-09-26T01:44:44.321Z,99062.00
2022-09-26T01:47:30.496Z,99061.50
2022-09-26T01:50:19.431Z,99040.50
2022-09-26T01:53:17.463Z,99044.22
2022-09-26T01:56:03.539Z,99052.72
2022-09-26T01:58:58.714Z,99053.88
2022-09-26T02:01:35.862Z,99057.00
2022-09-26T02:04:28.475Z,99048.81
2022-09-26T02:07:18.807Z,99039.28
2022-09-26T02:10:00.286Z,99032.22
2022-09-26T02:12:40.216Z,99023.63
2022-09-26T02:15:19.254Z,99016.53
2022-09-26T02:18:17.018Z,99030.59
2022-09-26T02:21:12.255Z,99032.88
2022-09-26T02:23:51.649Z,99034.53
2022-09-26T02:26:24.464Z,99026.97
2022-09-26T02:28:59.769Z,99026.63
2022-09-26T02:31:37.146Z,99030.44
2022-09-26T02:34:15.323Z,99030.59
2022-09-26T02:36:58.650Z,99017.28
2022-09-26T02:39:33.336Z,99008.09
2022-09-26T02:42:52.618Z,99001.44
2022-09-26T02:45:33.047Z,99004.25
2022-09-26T02:48:37.646Z,99001.03
2022-09-26T02:51:22.593Z,98999.53
2022-09-26T02:54:29.799Z,98999.28
2022-09-26T02:57:23.352Z,98995.94
2022-09-26T03:00:22.143Z,99007.59
2022-09-26T03:03:29.221Z,99025.31
2022-09-26T03:06:03.029Z,99020.41
2022-09-26T03:08:49.565Z,99029.75
2022-09-26T03:11:25.230Z,99028.63
2022-09-26T03:14:04.269Z,99009.22
2022-09-26T03:16:48.734Z,99011.13
2022-09-26T03:19:33.580Z,99010.31
2022-09-26T03:22:14.898Z,99001.69
2022-09-26T03:24:57.596Z,99000.38
2022-09-26T03:27:34.710Z,98992.50
2022-09-26T03:30:40.068Z,98999.56
2022-09-26T03:33:38.363Z,98992.25
2022-09-26T03:36:14.422Z,98986.91
2022-09-26T03:38:45.040Z,98986.25
2022-09-26T03:41:45.237Z,98993.63
2022-09-26T03:44:32.679Z,98970.84
2022-09-26T03:50:18.198Z,98977.78
2022-09-26T03:53:07.504Z,98966.56
2022-09-26T03:55:53.765Z,98968.69
2022-09-26T03:58:41.209Z,98980.66
2022-09-26T04:01:15.129Z,98971.66
2022-09-26T04:03:56.760Z,98962.31
2022-09-26T04:06:34.821Z,98961.72
2022-09-26T04:09:16.540Z,98957.38
2022-09-26T04:11:56.997Z,98958.44
2022-09-26T04:14:34.361Z,98958.44
2022-09-26T04:17:21.641Z,98963.41
2022-09-26T04:19:54.217Z,98957.38
2022-09-26T04:22:51.342Z,98946.53
2022-09-26T04:25:36.701Z,98952.25
2022-09-26T04:28:17.852Z,98943.25
2022-09-26T04:30:53.004Z,98943.25
2022-09-26T04:33:25.826Z,98938.16
2022-09-26T04:36:14.441Z,98938.22
2022-09-26T04:38:56.131Z,98941.31
2022-09-26T04:41:38.886Z,98939.38
2022-09-26T04:44:15.517Z,98921.00
2022-09-26T04:46:57.164Z,98915.59
2022-09-26T04:52:33.829Z,98926.25
2022-09-26T04:55:13.958Z,98930.59
2022-09-26T04:57:50.080Z,98907.78
2022-09-26T05:00:25.505Z,98898.59
2022-09-26T05:03:05.977Z,98892.84
2022-09-26T05:05:55.824Z,98896.81
2022-09-26T05:08:31.748Z,98908.78
2022-09-26T05:11:21.027Z,98910.03
2022-09-26T05:14:07.894Z,98928.25
2022-09-26T05:16:56.151Z,98931.03
2022-09-26T05:19:33.019Z,98931.59
2022-09-26T05:22:32.956Z,98935.00
2022-09-26T05:25:29.847Z,98938.41
2022-09-26T05:28:16.550Z,98932.94
2022-09-26T05:31:10.187Z,98911.94
2022-09-26T05:33:54.056Z,98903.75
2022-09-26T05:36:42.905Z,98906.47
2022-09-26T05:39:42.905Z,98910.06
2022-09-26T05:42:28.022Z,98914.84
2022-09-26T05:45:09.504Z,98910.31
2022-09-26T05:48:00.543Z,98896.78
2022-09-26T05:50:43.580Z,98898.22
2022-09-26T05:53:31.008Z,98919.06
2022-09-26T05:56:07.386Z,98924.00
2022-09-26T05:59:05.012Z,98929.16
2022-09-26T06:01:55.019Z,98929.41
2022-09-26T06:04:47.792Z,98928.31
2022-09-26T06:07:58.794Z,98926.19
2022-09-26T06:11:00.249Z,98924.31
2022-09-26T06:13:43.897Z,98917.81
2022-09-26T06:16:33.601Z,98920.03
2022-09-26T06:19:22.059Z,98914.94
2022-09-26T06:22:14.240Z,98918.19
2022-09-26T06:24:59.264Z,98918.13
2022-09-26T06:27:49.371Z,98905.66
2022-09-26T06:30:29.320Z,98887.25
2022-09-26T06:33:23.719Z,98883.41
2022-09-26T06:36:42.991Z,98888.66
2022-09-26T06:39:24.015Z,98896.03
2022-09-26T06:42:05.918Z,98896.19
2022-09-26T06:45:24.917Z,98905.16
2022-09-26T06:48:25.050Z,98898.97
2022-09-26T06:51:20.240Z,98905.84
2022-09-26T06:54:16.078Z,98908.53
2022-09-26T06:56:48.336Z,98898.28
2022-09-26T06:59:40.465Z,98893.44
2022-09-26T07:02:38.210Z,98898.28
2022-09-26T07:05:46.457Z,98895.41
2022-09-26T07:09:00.417Z,98898.13
2022-09-26T07:12:16.362Z,98895.22
2022-09-26T07:14:57.357Z,98897.47
2022-09-26T07:17:47.302Z,98902.19
2022-09-26T07:20:53.238Z,98902.75
2022-09-26T07:23:46.673Z,98907.66
2022-09-26T07:26:21.015Z,98899.00
2022-09-26T07:28:54.321Z,98900.38
2022-09-26T07:31:40.266Z,98910.75
2022-09-26T07:34:18.733Z,98905.09
2022-09-26T07:37:04.736Z,98897.81
2022-09-26T07:39:52.647Z,98908.25
2022-09-26T07:42:27.381Z,98907.28
2022-09-26T07:45:27.922Z,98914.94
2022-09-26T07:48:23.379Z,98918.00
2022-09-26T07:51:31.069Z,98930.75
2022-09-26T07:54:01.457Z,98934.19
2022-09-26T07:56:58.671Z,98938.72
2022-09-26T07:59:56.218Z,98938.72
2022-09-26T08:03:01.054Z,98925.63
2022-09-26T08:05:46.576Z,98937.94
2022-09-26T08:08:37.297Z,98926.53
2022-09-26T08:11:31.519Z,98934.75
2022-09-26T08:14:34.248Z,98946.19
2022-09-26T08:17:40.057Z,98944.59
2022-09-26T08:20:15.359Z,98938.88
2022-09-26T08:25:50.804Z,98925.41
2022-09-26T08:28:42.888Z,98917.66
2022-09-26T08:31:26.370Z,98924.75
2022-09-26T08:34:04.379Z,98927.28
2022-09-26T08:36:42.816Z,98934.44
2022-09-26T08:39:24.911Z,98936.69
2022-09-26T08:42:20.517Z,98935.38
2022-09-26T08:45:49.828Z,98935.34
2022-09-26T08:49:01.738Z,98922.31
2022-09-26T08:51:46.417Z,98922.69
2022-09-26T08:54:40.712Z,98913.47
2022-09-26T08:57:31.041Z,98921.66
2022-09-26T09:00:25.366Z,98927.94
2022-09-26T09:03:26.408Z,98924.13
2022-09-26T09:06:07.379Z,98941.28
2022-09-26T09:08:51.014Z,98935.03
2022-09-26T09:11:51.732Z,98943.44
2022-09-26T09:15:23.290Z,98941.84
2022-09-26T09:18:25.676Z,98936.13
2022-09-26T09:21:40.823Z,98948.41
2022-09-26T09:24:55.059Z,98943.22
2022-09-26T09:27:54.986Z,98943.22
2022-09-26T09:30:46.131Z,98944.84
2022-09-26T09:33:25.746Z,98935.88
2022-09-26T09:36:20.331Z,98935.88
2022-09-26T09:39:37.224Z,98939.97
2022-09-26T09:42:41.977Z,98926.09
2022-09-26T09:45:35.141Z,98926.88
2022-09-26T09:48:20.679Z,98926.06
2022-09-26T09:51:15.653Z,98933.13
2022-09-26T09:53:56.301Z,98924.16
2022-09-26T09:56:52.165Z,98927.69
2022-09-26T10:00:04.482Z,98921.09
2022-09-26T10:03:47.008Z,98928.75
2022-09-26T10:06:45.916Z,98925.97
2022-09-26T10:09:46.352Z,98924.06
2022-09-26T10:13:07.185Z,98924.09
2022-09-26T10:16:10.834Z,98913.78
2022-09-26T10:19:14.085Z,98915.41
2022-09-26T10:21:48.751Z,98918.13
2022-09-26T10:24:49.905Z,98918.69
2022-09-26T10:27:37.881Z,98927.69
2022-09-26T10:34:12.665Z,98920.88
2022-09-26T10:37:00.898Z,98922.56
2022-09-26T10:40:01.828Z,98917.06
2022-09-26T10:42:43.336Z,98910.44
2022-09-26T10:48:33.806Z,98906.06
2022-09-26T10:52:01.611Z,98904.94
2022-09-26T10:54:45.861Z,98902.16
2022-09-26T10:57:41.153Z,98896.44
2022-09-26T11:00:17.236Z,98893.16
2022-09-26T11:02:56.562Z,98881.75
2022-09-26T11:05:57.991Z,98884.44
2022-09-26T11:08:39.125Z,98891.44
2022-09-26T11:11:45.058Z,98905.41
2022-09-26T11:14:28.234Z,98905.56
2022-09-26T11:17:21.673Z,98906.22
2022-09-26T11:20:07.401Z,98900.59
2022-09-26T11:23:00.714Z,98905.28
2022-09-26T11:25:57.910Z,98909.91
2022-09-26T11:28:49.111Z,98921.66
2022-09-26T11:31:46.301Z,98923.06
2022-09-26T11:34:56.647Z,98925.75
2022-09-26T11:37:47.670Z,98929.63
2022-09-26T11:40:42.667Z,98929.63
2022-09-26T11:43:27.776Z,98925.81
2022-09-26T11:46:35.274Z,98921.47
2022-09-26T11:49:48.808Z,98922.03
2022-09-26T11:57:01.414Z,98904.00
2022-09-26T12:00:10.190Z,98906.16
2022-09-26T12:03:23.697Z,98905.63
2022-09-26T12:06:20.116Z,98907.44
2022-09-26T12:09:26.231Z,98903.53
2022-09-26T12:12:29.237Z,98913.03
2022-09-26T12:15:27.796Z,98914.03
2022-09-26T12:18:26.164Z,98911.88
2022-09-26T12:21:24.245Z,98914.63
2022-09-26T12:24:38.358Z,98910.25
2022-09-26T12:28:01.456Z,98908.53
2022-09-26T12:31:10.220Z,98892.06
2022-09-26T12:34:02.870Z,98891.16
2022-09-26T12:36:54.011Z,98887.34
2022-09-26T12:39:54.041Z,98886.34
2022-09-26T12:43:25.790Z,98872.72
2022-09-26T12:46:09.429Z,98869.50
2022-09-26T12:48:57.045Z,98868.56
2022-09-26T12:51:42.960Z,98863.38
2022-09-26T12:54:44.303Z,98860.22
2022-09-26T12:57:38.679Z,98855.75
2022-09-26T13:00:36.404Z,98860.19
2022-09-26T13:03:32.885Z,98859.03
2022-09-26T13:06:32.746Z,98848.75
2022-09-26T13:09:25.360Z,98846.69
2022-09-26T13:12:31.103Z,98844.38
2022-09-26T13:15:20.309Z,98845.75
2022-09-26T13:18:04.388Z,98836.50
2022-09-26T13:20:53.093Z,98835.38
2022-09-26T13:23:36.774Z,98829.91
2022-09-26T13:26:11.895Z,98826.31
2022-09-26T13:29:06.823Z,98839.72
2022-09-26T13:31:50.682Z,98846.97
2022-09-26T13:34:41.945Z,98852.28
2022-09-26T13:37:50.221Z,98857.34
2022-09-26T13:40:43.979Z,98860.22
2022-09-26T13:43:24.508Z,98849.69
2022-09-26T13:46:42.597Z,98859.75
2022-09-26T13:49:41.083Z,98851.56
2022-09-26T13:52:34.331Z,98850.59
2022-09-26T13:55:19.842Z,98854.50
2022-09-26T13:58:09.075Z,98854.00
2022-09-26T14:00:49.297Z,98844.94
2022-09-26T14:03:42.851Z,98857.28
2022-09-26T14:06:32.299Z,98848.81
2022-09-26T14:09:27.943Z,98846.22
2022-09-26T14:12:36.924Z,98847.59
2022-09-26T14:15:18.559Z,98832.34
2022-09-26T14:18:18.185Z,98820.53
2022-09-26T14:21:09.285Z,98826.28
2022-09-26T14:23:51.795Z,98831.25
2022-09-26T14:26:32.069Z,98834.69
2022-09-26T14:29:41.489Z,98826.50
2022-09-26T14:33:10.783Z,98819.00
2022-09-26T14:35:51.544Z,98820.38
2022-09-26T14:38:31.683Z,98814.34
2022-09-26T14:41:17.086Z,98815.63
2022-09-26T14:43:54.028Z,98810.66
2022-09-26T14:46:41.655Z,98814.94
2022-09-26T14:49:26.688Z,98818.72
2022-09-26T14:52:14.016Z,98810.09
2022-09-26T14:54:58.661Z,98816.03
2022-09-26T14:57:36.308Z,98806.31
2022-09-26T15:00:38.224Z,98797.72
2022-09-26T15:03:31.843Z,98793.91
2022-09-26T15:06:12.399Z,98785.41
2022-09-26T15:08:49.925Z,98790.22
2022-09-26T15:11:57.957Z,98799.94
2022-09-26T15:15:16.857Z,98800.84
2022-09-26T15:17:58.249Z,98795.13
2022-09-26T15:20:46.056Z,98788.63
2022-09-26T15:26:27.868Z,98781.28
2022-09-26T15:29:17.609Z,98784.25
2022-09-26T15:35:02.656Z,98780.63
2022-09-26T15:37:42.373Z,98784.06
2022-09-26T15:41:08.034Z,98785.84
2022-09-26T15:44:10.198Z,98782.84
2022-09-26T15:51:04.328Z,98773.00
2022-09-26T15:53:51.582Z,98772.31
2022-09-26T15:56:42.797Z,98774.66
2022-09-26T15:59:42.365Z,98771.38
2022-09-26T16:03:05.130Z,98764.19
2022-09-26T16:06:03.496Z,98771.09
2022-09-26T16:08:40.591Z,98764.50
2022-09-26T16:11:19.468Z,98770.28
2022-09-26T16:13:53.835Z,98765.28
2022-09-26T16:16:32.032Z,98768.47
2022-09-26T16:19:29.320Z,98770.97
2022-09-26T16:22:54.556Z,98776.13
2022-09-26T16:25:44.457Z,98780.09
2022-09-26T16:28:21.130Z,98779.09
2022-09-26T16:31:08.639Z,98776.75
2022-09-26T16:33:51.513Z,98776.81
2022-09-26T16:36:36.965Z,98777.38
2022-09-26T16:39:24.002Z,98781.25
2022-09-26T16:42:18.999Z,98770.38
2022-09-26T16:44:57.769Z,98776.94
2022-09-26T16:47:47.879Z,98772.56
2022-09-26T16:50:40.406Z,98773.66
2022-09-26T16:53:39.122Z,98769.78
2022-09-26T16:56:29.805Z,98766.78
2022-09-26T16:59:11.234Z,98769.75
2022-09-26T17:01:55.317Z,98756.13
2022-09-26T17:04:31.321Z,98761.22
2022-09-26T17:07:14.535Z,98763.06
2022-09-26T17:10:07.799Z,98768.22
2022-09-26T17:12:51.601Z,98760.81
2022-09-26T17:15:32.999Z,98764.59
2022-09-26T17:18:11.351Z,98771.56
2022-09-26T17:20:47.378Z,98770.13
2022-09-26T17:23:45.305Z,98770.59
2022-09-26T17:26:26.201Z,98752.88
2022-09-26T17:29:08.581Z,98752.53
2022-09-26T17:31:55.608Z,98750.03
2022-09-26T17:34:37.027Z,98762.41
2022-09-26T17:37:26.650Z,98766.66
2022-09-26T17:40:04.039Z,98761.72
2022-09-26T17:42:39.620Z,98773.59
2022-09-26T17:45:17.400Z,98776.78
2022-09-26T17:48:10.325Z,98772.06
2022-09-26T17:53:37.824Z,98776.56
2022-09-26T17:56:21.816Z,98772.78
2022-09-26T17:59:04.231Z,98783.25
2022-09-26T18:01:39.744Z,98779.41
2022-09-26T18:04:23.098Z,98779.03
2022-09-26T18:07:03.394Z,98774.56
2022-09-26T18:09:42.245Z,98781.59
2022-09-26T18:12:24.578Z,98770.56
2022-09-26T18:15:03.977Z,98779.66
2022-09-26T18:17:43.777Z,98768.22
2022-09-26T18:20:22.631Z,98771.50
2022-09-26T18:22:58.774Z,98768.78
2022-09-26T18:25:39.993Z,98776.91
2022-09-26T18:28:16.444Z,98764.94
2022-09-26T18:30:59.209Z,98770.03
2022-09-26T18:33:39.281Z,98770.22
2022-09-26T18:36:36.295Z,98770.91
2022-09-26T18:39:17.627Z,98761.09
2022-09-26T18:42:12.224Z,98761.91
2022-09-26T18:44:52.519Z,98765.34
2022-09-26T18:47:31.312Z,98761.75
2022-09-26T18:50:29.486Z,98770.31
2022-09-26T18:53:10.683Z,98774.34
2022-09-26T18:56:02.107Z,98774.28
2022-09-26T18:58:38.226Z,98764.69
2022-09-26T19:01:16.977Z,98762.16
2022-09-26T19:04:00.061Z,98766.09
2022-09-26T19:06:41.795Z,98779.53
2022-09-26T19:09:24.472Z,98771.56
2022-09-26T19:12:00.622Z,98786.09
2022-09-26T19:14:35.774Z,98774.03
2022-09-26T19:17:17.455Z,98783.81
2022-09-26T19:19:52.915Z,98778.97
2022-09-26T19:22:28.359Z,98779.94
2022-09-26T19:25:04.499Z,98783.47
2022-09-26T19:27:44.488Z,98786.91
2022-09-26T19:30:21.094Z,98785.75
2022-09-26T19:32:56.635Z,98785.44
2022-09-26T19:35:30.457Z,98786.75
2022-09-26T19:38:16.272Z,98794.50
2022-09-26T19:40:53.441Z,98792.53
2022-09-26T19:43:28.680Z,98794.91
2022-09-26T19:46:08.965Z,98796.22
2022-09-26T19:48:42.836Z,98794.00
2022-09-26T19:51:20.584Z,98795.53
2022-09-26T19:54:01.446Z,98800.34
2022-09-26T19:56:41.075Z,98792.84
2022-09-26T19:59:27.353Z,98793.91
2022-09-26T20:02:14.149Z,98788.81
2022-09-26T20:05:03.637Z,98779.66
2022-09-26T20:08:02.990Z,98775.28
2022-09-26T20:10:44.138Z,98770.53
2022-09-26T20:13:17.660Z,98769.84
2022-09-26T20:15:55.812Z,98764.00
2022-09-26T20:18:37.011Z,98770.28
2022-09-26T20:21:14.754Z,98773.81
2022-09-26T20:23:51.625Z,98775.13
2022-09-26T20:26:30.380Z,98782.41
2022-09-26T20:29:17.068Z,98781.84
2022-09-26T20:31:53.202Z,98786.09
2022-09-26T20:34:30.352Z,98789.78
2022-09-26T20:37:14.115Z,98786.50
2022-09-26T20:39:52.055Z,98789.22
2022-09-26T20:42:28.290Z,98776.50
2022-09-26T20:45:03.728Z,98775.69
2022-09-26T20:47:45.810Z,98767.59
2022-09-26T20:50:33.825Z,98762.19
2022-09-26T20:53:16.447Z,98759.47
2022-09-26T20:56:04.232Z,98754.72
2022-09-26T20:58:43.984Z,98759.72
2022-09-26T21:01:26.922Z,98773.81
2022-09-26T21:04:02.002Z,98767.81
2022-09-26T21:06:35.211Z,98771.56
2022-09-26T21:09:18.396Z,98761.75
2022-09-26T21:11:51.212Z,98756.13
2022-09-26T21:14:30.298Z,98758.56
2022-09-26T21:17:06.430Z,98761.53
2022-09-26T21:19:41.898Z,98746.63
2022-09-26T21:22:39.990Z,98753.41
2022-09-26T21:25:32.241Z,98750.72
2022-09-26T21:28:26.834Z,98746.63
2022-09-26T21:31:11.599Z,98746.84
2022-09-26T21:33:51.068Z,98743.34
2022-09-26T21:36:38.085Z,98735.38
2022-09-26T21:39:14.536Z,98731.38
2022-09-26T21:41:56.046Z,98728.09
2022-09-26T21:44:55.142Z,98725.66
2022-09-26T21:47:28.271Z,98718.94
2022-09-26T21:53:09.049Z,98721.88
2022-09-26T21:55:47.674Z,98719.75
2022-09-26T21:58:47.139Z,98715.97
2022-09-26T22:01:21.561Z,98713.03
2022-09-26T22:03:59.902Z,98711.13
2022-09-26T22:06:33.609Z,98711.94
2022-09-26T22:09:06.270Z,98717.28
2022-09-26T22:11:50.963Z,98717.13
2022-09-26T22:14:29.250Z,98724.91
2022-09-26T22:17:08.539Z,98719.50
2022-09-26T22:19:53.835Z,98710.56
2022-09-26T22:22:29.408Z,98704.91
2022-09-26T22:25:05.214Z,98705.00
2022-09-26T22:27:40.363Z,98697.47
2022-09-26T22:30:13.509Z,98690.41
2022-09-26T22:32:46.048Z,98696.72
2022-09-26T22:35:22.177Z,98697.53
2022-09-26T22:37:57.708Z,98689.44
2022-09-26T22:40:35.859Z,98690.75
2022-09-26T22:43:11.496Z,98688.28
2022-09-26T22:45:46.725Z,98684.19
2022-09-26T22:48:27.080Z,98673.38
2022-09-26T22:51:02.650Z,98673.72
2022-09-26T22:53:39.332Z,98663.72
2022-09-26T22:56:18.566Z,98658.31
2022-09-26T22:58:56.171Z,98648.31
2022-09-26T23:01:43.017Z,98642.66
2022-09-26T23:04:15.515Z,98641.59
2022-09-26T23:06:53.759Z,98639.19
2022-09-26T23:09:32.139Z,98634.28
2022-09-26T23:12:13.274Z,98637.78
2022-09-26T23:14:49.102Z,98626.75
2022-09-26T23:17:25.328Z,98624.47
2022-09-26T23:20:11.896Z,98623.22
2022-09-26T23:22:47.238Z,98626.81
2022-09-26T23:25:19.621Z,98633.16
2022-09-26T23:27:54.903Z,98628.50
2022-09-26T23:30:31.757Z,98620.91
2022-09-26T23:33:14.732Z,98619.78
2022-09-26T23:35:57.600Z,98611.91
2022-09-26T23:38:33.140Z,98610.59
2022-09-26T23:41:03.508Z,98609.63
2022-09-26T23:43:39.228Z,98613.09
2022-09-26T23:46:17.526Z,98610.84
2022-09-26T23:49:14.288Z,98602.59
2022-09-26T23:51:58.482Z,98602.31
2022-09-26T23:54:47.497Z,98597.69
2022-09-26T23:57:23.513Z,98590.66
2022-09-26T23:59:59.669Z,98593.34
